sensor_id;sensor_type;location;lat;lon;timestamp;pressure;altitude;pressure_sealevel;temperature
18161;BMP280;9205;52.032;4.314;2023-04-30T00:02:27;102352.50;;;11.28
18161;BMP280;9205;52.032;4.314;2023-04-30T00:04:54;102357.59;;;11.17
18161;BMP280;9205;52.032;4.314;2023-04-30T00:07:21;102350.81;;;11.12
18161;BMP280;9205;52.032;4.314;2023-04-30T00:09:48;102347.44;;;11.16
18161;BMP280;9205;52.032;4.314;2023-04-30T00:12:16;102347.44;;;11.20
18161;BMP280;9205;52.032;4.314;2023-04-30T00:14:44;102348.28;;;11.13
18161;BMP280;9205;52.032;4.314;2023-04-30T00:17:11;102355.06;;;11.16
18161;BMP280;9205;52.032;4.314;2023-04-30T00:19:38;102356.75;;;11.11
18161;BMP280;9205;52.032;4.314;2023-04-30T00:22:06;102358.44;;;10.98
18161;BMP280;9205;52.032;4.314;2023-04-30T00:24:33;102355.06;;;11.02
18161;BMP280;9205;52.032;4.314;2023-04-30T00:27:00;102362.69;;;11.07
18161;BMP280;9205;52.032;4.314;2023-04-30T00:29:27;102356.75;;;11.08
18161;BMP280;9205;52.032;4.314;2023-04-30T00:31:56;102360.16;;;11.01
18161;BMP280;9205;52.032;4.314;2023-04-30T00:34:23;102354.22;;;10.93
18161;BMP280;9205;52.032;4.314;2023-04-30T00:36:50;102361.00;;;10.94
18161;BMP280;9205;52.032;4.314;2023-04-30T00:39:17;102366.06;;;10.98
18161;BMP280;9205;52.032;4.314;2023-04-30T00:41:45;102373.69;;;10.88
18161;BMP280;9205;52.032;4.314;2023-04-30T00:44:12;102372.00;;;10.81
18161;BMP280;9205;52.032;4.314;2023-04-30T00:46:39;102372.00;;;10.80
18161;BMP280;9205;52.032;4.314;2023-04-30T00:49:08;102370.31;;;10.83
18161;BMP280;9205;52.032;4.314;2023-04-30T00:51:35;102371.13;;;10.78
18161;BMP280;9205;52.032;4.314;2023-04-30T00:54:04;102366.91;;;10.81
18161;BMP280;9205;52.032;4.314;2023-04-30T00:56:32;102367.75;;;10.77
18161;BMP280;9205;52.032;4.314;2023-04-30T00:58:59;102365.22;;;10.73
18161;BMP280;9205;52.032;4.314;2023-04-30T01:01:27;102372.81;;;10.74
18161;BMP280;9205;52.032;4.314;2023-04-30T01:03:54;102372.81;;;10.68
18161;BMP280;9205;52.032;4.314;2023-04-30T01:06:25;102366.88;;;10.65
18161;BMP280;9205;52.032;4.314;2023-04-30T01:08:52;102377.91;;;10.67
18161;BMP280;9205;52.032;4.314;2023-04-30T01:11:33;102375.34;;;10.65
18161;BMP280;9205;52.032;4.314;2023-04-30T01:14:09;102377.03;;;10.66
18161;BMP280;9205;52.032;4.314;2023-04-30T01:16:45;102377.88;;;10.65
18161;BMP280;9205;52.032;4.314;2023-04-30T01:19:31;102384.66;;;10.62
18161;BMP280;9205;52.032;4.314;2023-04-30T01:22:04;102377.03;;;10.60
18161;BMP280;9205;52.032;4.314;2023-04-30T01:24:59;102371.94;;;10.62
18161;BMP280;9205;52.032;4.314;2023-04-30T01:30:34;102380.44;;;10.62
18161;BMP280;9205;52.032;4.314;2023-04-30T01:33:02;102382.16;;;10.63
18161;BMP280;9205;52.032;4.314;2023-04-30T01:35:56;102387.22;;;10.71
18161;BMP280;9205;52.032;4.314;2023-04-30T01:38:41;102377.88;;;10.65
18161;BMP280;9205;52.032;4.314;2023-04-30T01:41:21;102370.28;;;10.70
18161;BMP280;9205;52.032;4.314;2023-04-30T01:44:00;102377.06;;;10.72
18161;BMP280;9205;52.032;4.314;2023-04-30T01:46:33;102377.91;;;10.68
18161;BMP280;9205;52.032;4.314;2023-04-30T01:49:20;102376.22;;;10.66
18161;BMP280;9205;52.032;4.314;2023-04-30T01:52:01;102366.06;;;10.70
18161;BMP280;9205;52.032;4.314;2023-04-30T01:54:37;102368.59;;;10.73
18161;BMP280;9205;52.032;4.314;2023-04-30T01:57:11;102370.28;;;10.74
18161;BMP280;9205;52.032;4.314;2023-04-30T01:59:42;102363.50;;;10.76
18161;BMP280;9205;52.032;4.314;2023-04-30T02:02:12;102370.28;;;10.80
18161;BMP280;9205;52.032;4.314;2023-04-30T02:04:39;102367.78;;;10.82
18161;BMP280;9205;52.032;4.314;2023-04-30T02:07:07;102368.59;;;10.82
18161;BMP280;9205;52.032;4.314;2023-04-30T02:09:34;102380.47;;;10.85
18161;BMP280;9205;52.032;4.314;2023-04-30T02:12:02;102361.84;;;10.84
18161;BMP280;9205;52.032;4.314;2023-04-30T02:14:30;102365.22;;;10.82
18161;BMP280;9205;52.032;4.314;2023-04-30T02:16:57;102368.59;;;10.76
18161;BMP280;9205;52.032;4.314;2023-04-30T02:19:26;102370.28;;;10.68
18161;BMP280;9205;52.032;4.314;2023-04-30T02:21:53;102367.75;;;10.73
18161;BMP280;9205;52.032;4.314;2023-04-30T02:24:20;102360.97;;;10.67
18161;BMP280;9205;52.032;4.314;2023-04-30T02:26:47;102366.03;;;10.63
18161;BMP280;9205;52.032;4.314;2023-04-30T02:29:14;102354.16;;;10.66
18161;BMP280;9205;52.032;4.314;2023-04-30T02:31:42;102352.47;;;10.65
18161;BMP280;9205;52.032;4.314;2023-04-30T02:34:10;102359.25;;;10.66
18161;BMP280;9205;52.032;4.314;2023-04-30T02:36:38;102366.03;;;10.67
18161;BMP280;9205;52.032;4.314;2023-04-30T02:39:05;102363.50;;;10.67
18161;BMP280;9205;52.032;4.314;2023-04-30T02:41:33;102354.16;;;10.66
18161;BMP280;9205;52.032;4.314;2023-04-30T02:44:01;102363.47;;;10.64
18161;BMP280;9205;52.032;4.314;2023-04-30T02:46:28;102358.38;;;10.64
18161;BMP280;9205;52.032;4.314;2023-04-30T02:48:55;102359.25;;;10.63
18161;BMP280;9205;52.032;4.314;2023-04-30T02:51:22;102366.84;;;10.57
18161;BMP280;9205;52.032;4.314;2023-04-30T02:53:51;102370.22;;;10.56
18161;BMP280;9205;52.032;4.314;2023-04-30T02:56:18;102369.41;;;10.54
18161;BMP280;9205;52.032;4.314;2023-04-30T02:58:46;102369.38;;;10.53
18161;BMP280;9205;52.032;4.314;2023-04-30T03:01:13;102370.22;;;10.44
18161;BMP280;9205;52.032;4.314;2023-04-30T03:03:40;102366.00;;;10.46
18161;BMP280;9205;52.032;4.314;2023-04-30T03:06:08;102364.28;;;10.47
18161;BMP280;9205;52.032;4.314;2023-04-30T03:08:35;102361.78;;;10.48
18161;BMP280;9205;52.032;4.314;2023-04-30T03:11:03;102371.06;;;10.46
18161;BMP280;9205;52.032;4.314;2023-04-30T03:13:31;102371.94;;;10.48
18161;BMP280;9205;52.032;4.314;2023-04-30T03:15:58;102374.41;;;10.38
18161;BMP280;9205;52.032;4.314;2023-04-30T03:18:26;102368.50;;;10.37
18161;BMP280;9205;52.032;4.314;2023-04-30T03:20:53;102366.81;;;10.39
18161;BMP280;9205;52.032;4.314;2023-04-30T03:23:20;102366.81;;;10.36
18161;BMP280;9205;52.032;4.314;2023-04-30T03:25:48;102369.34;;;10.36
18161;BMP280;9205;52.032;4.314;2023-04-30T03:28:16;102377.81;;;10.41
18161;BMP280;9205;52.032;4.314;2023-04-30T03:30:43;102373.59;;;10.37
18161;BMP280;9205;52.032;4.314;2023-04-30T03:33:11;102375.28;;;10.41
18161;BMP280;9205;52.032;4.314;2023-04-30T03:35:38;102363.41;;;10.34
18161;BMP280;9205;52.032;4.314;2023-04-30T03:38:06;102368.50;;;10.39
18161;BMP280;9205;52.032;4.314;2023-04-30T03:40:33;102366.81;;;10.36
18161;BMP280;9205;52.032;4.314;2023-04-30T03:43:00;102365.09;;;10.35
18161;BMP280;9205;52.032;4.314;2023-04-30T03:45:29;102371.88;;;10.35
18161;BMP280;9205;52.032;4.314;2023-04-30T03:47:57;102362.56;;;10.28
18161;BMP280;9205;52.032;4.314;2023-04-30T03:50:24;102356.59;;;10.27
18161;BMP280;9205;52.032;4.314;2023-04-30T03:52:51;102351.53;;;10.24
18161;BMP280;9205;52.032;4.314;2023-04-30T03:55:19;102341.34;;;10.23
18161;BMP280;9205;52.032;4.314;2023-04-30T03:57:46;102348.97;;;10.23
18161;BMP280;9205;52.032;4.314;2023-04-30T04:00:14;102356.56;;;10.18
18161;BMP280;9205;52.032;4.314;2023-04-30T04:02:47;102350.63;;;10.13
18161;BMP280;9205;52.032;4.314;2023-04-30T04:05:15;102351.47;;;10.13
18161;BMP280;9205;52.032;4.314;2023-04-30T04:07:43;102351.50;;;10.15
18161;BMP280;9205;52.032;4.314;2023-04-30T04:10:11;102356.56;;;10.13
18161;BMP280;9205;52.032;4.314;2023-04-30T04:12:38;102361.63;;;10.10
18161;BMP280;9205;52.032;4.314;2023-04-30T04:15:07;102357.41;;;10.13
18161;BMP280;9205;52.032;4.314;2023-04-30T04:17:34;102361.66;;;10.18
18161;BMP280;9205;52.032;4.314;2023-04-30T04:20:04;102364.22;;;10.20
18161;BMP280;9205;52.032;4.314;2023-04-30T04:22:34;102365.91;;;10.18
18161;BMP280;9205;52.032;4.314;2023-04-30T04:25:01;102355.72;;;10.18
18161;BMP280;9205;52.032;4.314;2023-04-30T04:27:29;102360.81;;;10.16
18161;BMP280;9205;52.032;4.314;2023-04-30T04:29:57;102363.34;;;10.18
18161;BMP280;9205;52.032;4.314;2023-04-30T04:32:24;102363.34;;;10.19
18161;BMP280;9205;52.032;4.314;2023-04-30T04:34:52;102366.75;;;10.21
18161;BMP280;9205;52.032;4.314;2023-04-30T04:37:21;102362.50;;;10.19
18161;BMP280;9205;52.032;4.314;2023-04-30T04:39:48;102360.81;;;10.16
18161;BMP280;9205;52.032;4.314;2023-04-30T04:42:16;102370.09;;;10.16
18161;BMP280;9205;52.032;4.314;2023-04-30T04:44:44;102365.84;;;10.11
18161;BMP280;9205;52.032;4.314;2023-04-30T04:47:12;102370.94;;;10.09
18161;BMP280;9205;52.032;4.314;2023-04-30T04:49:39;102372.63;;;10.09
18161;BMP280;9205;52.032;4.314;2023-04-30T04:52:08;102376.84;;;10.07
18161;BMP280;9205;52.032;4.314;2023-04-30T04:54:37;102377.69;;;10.07
18161;BMP280;9205;52.032;4.314;2023-04-30T04:57:04;102382.78;;;10.09
18161;BMP280;9205;52.032;4.314;2023-04-30T04:59:31;102373.47;;;10.08
18161;BMP280;9205;52.032;4.314;2023-04-30T05:01:58;102380.25;;;10.09
18161;BMP280;9205;52.032;4.314;2023-04-30T05:04:26;102375.97;;;10.05
18161;BMP280;9205;52.032;4.314;2023-04-30T05:06:54;102373.47;;;10.09
18161;BMP280;9205;52.032;4.314;2023-04-30T05:09:22;102376.03;;;10.12
18161;BMP280;9205;52.032;4.314;2023-04-30T05:11:50;102381.94;;;10.11
18161;BMP280;9205;52.032;4.314;2023-04-30T05:14:17;102383.66;;;10.13
18161;BMP280;9205;52.032;4.314;2023-04-30T05:16:45;102385.38;;;10.19
18161;BMP280;9205;52.032;4.314;2023-04-30T05:19:12;102391.28;;;10.16
18161;BMP280;9205;52.032;4.314;2023-04-30T05:21:40;102398.94;;;10.22
18161;BMP280;9205;52.032;4.314;2023-04-30T05:24:07;102392.16;;;10.23
18161;BMP280;9205;52.032;4.314;2023-04-30T05:26:34;102385.41;;;10.29
18161;BMP280;9205;52.032;4.314;2023-04-30T05:29:02;102382.88;;;10.31
18161;BMP280;9205;52.032;4.314;2023-04-30T05:31:29;102380.34;;;10.32
18161;BMP280;9205;52.032;4.314;2023-04-30T05:33:57;102377.81;;;10.35
18161;BMP280;9205;52.032;4.314;2023-04-30T05:36:24;102383.78;;;10.40
18161;BMP280;9205;52.032;4.314;2023-04-30T05:38:52;102387.13;;;10.36
18161;BMP280;9205;52.032;4.314;2023-04-30T05:41:19;102391.38;;;10.39
18161;BMP280;9205;52.032;4.314;2023-04-30T05:43:47;102377.81;;;10.40
18161;BMP280;9205;52.032;4.314;2023-04-30T05:46:15;102383.75;;;10.43
18161;BMP280;9205;52.032;4.314;2023-04-30T05:48:42;102392.25;;;10.45
18161;BMP280;9205;52.032;4.314;2023-04-30T05:51:10;102397.34;;;10.57
18161;BMP280;9205;52.032;4.314;2023-04-30T05:53:37;102388.06;;;10.68
18161;BMP280;9205;52.032;4.314;2023-04-30T05:56:05;102387.22;;;10.68
18161;BMP280;9205;52.032;4.314;2023-04-30T05:58:33;102384.66;;;10.68
18161;BMP280;9205;52.032;4.314;2023-04-30T06:01:00;102390.59;;;10.58
18161;BMP280;9205;52.032;4.314;2023-04-30T06:03:29;102380.41;;;10.55
18161;BMP280;9205;52.032;4.314;2023-04-30T06:05:56;102378.75;;;10.67
18161;BMP280;9205;52.032;4.314;2023-04-30T06:08:24;102385.56;;;10.71
18161;BMP280;9205;52.032;4.314;2023-04-30T06:10:51;102377.03;;;10.68
18161;BMP280;9205;52.032;4.314;2023-04-30T06:13:18;102371.16;;;10.79
18161;BMP280;9205;52.032;4.314;2023-04-30T06:15:45;102381.31;;;10.82
18161;BMP280;9205;52.032;4.314;2023-04-30T06:18:13;102386.44;;;10.94
18161;BMP280;9205;52.032;4.314;2023-04-30T06:20:42;102383.03;;;11.07
18161;BMP280;9205;52.032;4.314;2023-04-30T06:23:09;102382.19;;;11.15
18161;BMP280;9205;52.032;4.314;2023-04-30T06:25:36;102377.94;;;11.19
18161;BMP280;9205;52.032;4.314;2023-04-30T06:28:04;102390.69;;;11.22
18161;BMP280;9205;52.032;4.314;2023-04-30T06:30:33;102385.59;;;11.10
18161;BMP280;9205;52.032;4.314;2023-04-30T06:33:00;102387.28;;;11.23
18161;BMP280;9205;52.032;4.314;2023-04-30T06:35:27;102379.66;;;11.29
18161;BMP280;9205;52.032;4.314;2023-04-30T06:37:56;102383.03;;;11.38
18161;BMP280;9205;52.032;4.314;2023-04-30T06:40:23;102384.72;;;11.48
18161;BMP280;9205;52.032;4.314;2023-04-30T06:42:50;102376.25;;;11.60
18161;BMP280;9205;52.032;4.314;2023-04-30T06:45:19;102386.44;;;11.61
18161;BMP280;9205;52.032;4.314;2023-04-30T06:47:46;102375.38;;;11.68
18161;BMP280;9205;52.032;4.314;2023-04-30T06:50:13;102370.31;;;11.70
18161;BMP280;9205;52.032;4.314;2023-04-30T06:52:41;102384.72;;;11.76
18161;BMP280;9205;52.032;4.314;2023-04-30T06:55:10;102390.63;;;11.93
18161;BMP280;9205;52.032;4.314;2023-04-30T06:57:38;102388.06;;;11.96
18161;BMP280;9205;52.032;4.314;2023-04-30T07:00:07;102380.41;;;11.99
18161;BMP280;9205;52.032;4.314;2023-04-30T07:02:34;102382.09;;;12.00
18161;BMP280;9205;52.032;4.314;2023-04-30T07:05:02;102388.84;;;12.13
18161;BMP280;9205;52.032;4.314;2023-04-30T07:07:29;102387.13;;;12.21
18161;BMP280;9205;52.032;4.314;2023-04-30T07:09:57;102384.63;;;12.11
18161;BMP280;9205;52.032;4.314;2023-04-30T07:12:25;102388.81;;;12.22
18161;BMP280;9205;52.032;4.314;2023-04-30T07:14:52;102393.88;;;12.28
18161;BMP280;9205;52.032;4.314;2023-04-30T07:17:20;102384.47;;;12.38
18161;BMP280;9205;52.032;4.314;2023-04-30T07:19:47;102392.91;;;12.50
18161;BMP280;9205;52.032;4.314;2023-04-30T07:22:14;102392.88;;;12.59
18161;BMP280;9205;52.032;4.314;2023-04-30T07:24:41;102388.56;;;12.70
18161;BMP280;9205;52.032;4.314;2023-04-30T07:27:08;102395.38;;;12.68
18161;BMP280;9205;52.032;4.314;2023-04-30T07:29:37;102391.16;;;12.65
18161;BMP280;9205;52.032;4.314;2023-04-30T07:32:04;102389.44;;;12.69
18161;BMP280;9205;52.032;4.314;2023-04-30T07:34:32;102390.19;;;12.83
18161;BMP280;9205;52.032;4.314;2023-04-30T07:36:59;102385.88;;;12.97
18161;BMP280;9205;52.032;4.314;2023-04-30T07:39:27;102396.09;;;12.94
18161;BMP280;9205;52.032;4.314;2023-04-30T07:41:54;102389.22;;;13.06
18161;BMP280;9205;52.032;4.314;2023-04-30T07:44:21;102390.81;;;13.16
18161;BMP280;9205;52.032;4.314;2023-04-30T07:46:50;102392.41;;;13.27
18161;BMP280;9205;52.032;4.314;2023-04-30T07:49:17;102386.44;;;13.30
18161;BMP280;9205;52.032;4.314;2023-04-30T07:51:44;102393.25;;;13.29
18161;BMP280;9205;52.032;4.314;2023-04-30T07:54:12;102393.31;;;13.22
18161;BMP280;9205;52.032;4.314;2023-04-30T07:56:39;102390.78;;;13.24
18161;BMP280;9205;52.032;4.314;2023-04-30T07:59:07;102390.75;;;13.25
18161;BMP280;9205;52.032;4.314;2023-04-30T08:01:34;102392.31;;;13.41
18161;BMP280;9205;52.032;4.314;2023-04-30T08:04:03;102399.91;;;13.48
18161;BMP280;9205;52.032;4.314;2023-04-30T08:06:31;102394.66;;;13.62
18161;BMP280;9205;52.032;4.314;2023-04-30T08:08:59;102401.41;;;13.70
18161;BMP280;9205;52.032;4.314;2023-04-30T08:11:26;102395.38;;;13.77
18161;BMP280;9205;52.032;4.314;2023-04-30T08:13:53;102387.59;;;13.85
18161;BMP280;9205;52.032;4.314;2023-04-30T08:16:20;102396.94;;;13.89
18161;BMP280;9205;52.032;4.314;2023-04-30T08:18:47;102386.69;;;13.92
18161;BMP280;9205;52.032;4.314;2023-04-30T08:21:16;102389.13;;;14.02
18161;BMP280;9205;52.032;4.314;2023-04-30T08:23:43;102389.88;;;14.14
18161;BMP280;9205;52.032;4.314;2023-04-30T08:26:11;102394.06;;;14.21
18161;BMP280;9205;52.032;4.314;2023-04-30T08:28:38;102390.63;;;14.21
18161;BMP280;9205;52.032;4.314;2023-04-30T08:31:05;102385.44;;;14.27
18161;BMP280;9205;52.032;4.314;2023-04-30T08:33:35;102385.34;;;14.34
18161;BMP280;9205;52.032;4.314;2023-04-30T08:36:03;102382.88;;;14.28
18161;BMP280;9205;52.032;4.314;2023-04-30T08:38:32;102387.94;;;14.31
18161;BMP280;9205;52.032;4.314;2023-04-30T08:41:08;102382.06;;;14.26
18161;BMP280;9205;52.032;4.314;2023-04-30T08:43:37;102386.44;;;14.15
18161;BMP280;9205;52.032;4.314;2023-04-30T08:46:05;102382.22;;;14.11
18161;BMP280;9205;52.032;4.314;2023-04-30T08:48:33;102398.28;;;14.22
18161;BMP280;9205;52.032;4.314;2023-04-30T08:51:00;102383.50;;;14.47
18161;BMP280;9205;52.032;4.314;2023-04-30T08:53:29;102391.78;;;14.64
18161;BMP280;9205;52.032;4.314;2023-04-30T08:55:58;102383.19;;;14.68
18161;BMP280;9205;52.032;4.314;2023-04-30T08:58:25;102380.59;;;14.69
18161;BMP280;9205;52.032;4.314;2023-04-30T09:00:52;102384.78;;;14.75
18161;BMP280;9205;52.032;4.314;2023-04-30T09:03:19;102381.94;;;14.94
18161;BMP280;9205;52.032;4.314;2023-04-30T09:05:48;102379.28;;;15.01
18161;BMP280;9205;52.032;4.314;2023-04-30T09:08:19;102375.78;;;15.05
18161;BMP280;9205;52.032;4.314;2023-04-30T09:11:23;102376.00;;;14.90
18161;BMP280;9205;52.032;4.314;2023-04-30T09:13:51;102380.78;;;15.11
18161;BMP280;9205;52.032;4.314;2023-04-30T09:16:20;102379.69;;;15.29
18161;BMP280;9205;52.032;4.314;2023-04-30T09:18:48;102381.41;;;15.30
18161;BMP280;9205;52.032;4.314;2023-04-30T09:21:16;102375.53;;;15.20
18161;BMP280;9205;52.032;4.314;2023-04-30T09:23:57;102374.63;;;15.23
18161;BMP280;9205;52.032;4.314;2023-04-30T09:26:31;102369.53;;;15.21
18161;BMP280;9205;52.032;4.314;2023-04-30T09:29:00;102368.63;;;15.27
18161;BMP280;9205;52.032;4.314;2023-04-30T09:31:33;102379.59;;;15.35
18161;BMP280;9205;52.032;4.314;2023-04-30T09:34:01;102373.69;;;15.31
18161;BMP280;9205;52.032;4.314;2023-04-30T09:36:28;102360.66;;;15.43
18161;BMP280;9205;52.032;4.314;2023-04-30T09:39:04;102363.09;;;15.51
18161;BMP280;9205;52.032;4.314;2023-04-30T09:41:34;102359.50;;;15.59
18161;BMP280;9205;52.032;4.314;2023-04-30T09:44:01;102362.06;;;15.59
18161;BMP280;9205;52.032;4.314;2023-04-30T09:46:33;102364.63;;;15.59
18161;BMP280;9205;52.032;4.314;2023-04-30T09:49:04;102362.84;;;15.64
18161;BMP280;9205;52.032;4.314;2023-04-30T09:51:32;102361.19;;;15.60
18161;BMP280;9205;52.032;4.314;2023-04-30T09:54:02;102356.88;;;15.64
18161;BMP280;9205;52.032;4.314;2023-04-30T09:56:34;102353.25;;;15.73
18161;BMP280;9205;52.032;4.314;2023-04-30T09:59:06;102360.63;;;15.90
18161;BMP280;9205;52.032;4.314;2023-04-30T10:01:35;102346.84;;;15.95
18161;BMP280;9205;52.032;4.314;2023-04-30T10:04:04;102351.88;;;16.00
18161;BMP280;9205;52.032;4.314;2023-04-30T10:06:31;102341.53;;;16.04
18161;BMP280;9205;52.032;4.314;2023-04-30T10:09:04;102339.53;;;16.18
18161;BMP280;9205;52.032;4.314;2023-04-30T10:11:37;102347.84;;;16.31
18161;BMP280;9205;52.032;4.314;2023-04-30T10:14:12;102339.28;;;16.32
18161;BMP280;9205;52.032;4.314;2023-04-30T10:16:46;102339.06;;;16.41
18161;BMP280;9205;52.032;4.314;2023-04-30T10:19:21;102339.75;;;16.48
18161;BMP280;9205;52.032;4.314;2023-04-30T10:21:49;102342.22;;;16.53
18161;BMP280;9205;52.032;4.314;2023-04-30T10:24:18;102334.16;;;16.68
18161;BMP280;9205;52.032;4.314;2023-04-30T10:26:48;102338.13;;;16.81
18161;BMP280;9205;52.032;4.314;2023-04-30T10:29:27;102338.78;;;16.89
18161;BMP280;9205;52.032;4.314;2023-04-30T10:31:56;102329.34;;;16.89
18161;BMP280;9205;52.032;4.314;2023-04-30T10:34:37;102332.44;;;17.03
18161;BMP280;9205;52.032;4.314;2023-04-30T10:37:19;102334.03;;;17.07
18161;BMP280;9205;52.032;4.314;2023-04-30T10:39:49;102328.31;;;16.98
18161;BMP280;9205;52.032;4.314;2023-04-30T10:42:17;102328.84;;;17.10
18161;BMP280;9205;52.032;4.314;2023-04-30T10:44:45;102324.72;;;17.38
18161;BMP280;9205;52.032;4.314;2023-04-30T10:47:15;102316.06;;;17.42
18161;BMP280;9205;52.032;4.314;2023-04-30T10:49:45;102319.38;;;17.76
18161;BMP280;9205;52.032;4.314;2023-04-30T10:52:25;102304.34;;;18.20
18161;BMP280;9205;52.032;4.314;2023-04-30T10:54:53;102299.38;;;18.96
18161;BMP280;9205;52.032;4.314;2023-04-30T10:57:20;102289.44;;;19.81
18161;BMP280;9205;52.032;4.314;2023-04-30T11:00:24;102276.31;;;20.96
18161;BMP280;9205;52.032;4.314;2023-04-30T11:02:56;102269.47;;;21.53
18161;BMP280;9205;52.032;4.314;2023-04-30T11:05:37;102267.69;;;21.53
18161;BMP280;9205;52.032;4.314;2023-04-30T11:08:10;102269.59;;;21.50
18161;BMP280;9205;52.032;4.314;2023-04-30T11:10:37;102267.75;;;21.72
18161;BMP280;9205;52.032;4.314;2023-04-30T11:13:09;102259.16;;;21.51
18161;BMP280;9205;52.032;4.314;2023-04-30T11:15:44;102258.59;;;21.07
18161;BMP280;9205;52.032;4.314;2023-04-30T11:18:13;102250.06;;;21.25
18161;BMP280;9205;52.032;4.314;2023-04-30T11:20:48;102251.63;;;21.47
18161;BMP280;9205;52.032;4.314;2023-04-30T11:23:22;102252.16;;;21.55
18161;BMP280;9205;52.032;4.314;2023-04-30T11:25:53;102242.44;;;21.40
18161;BMP280;9205;52.032;4.314;2023-04-30T11:28:23;102243.22;;;20.84
18161;BMP280;9205;52.032;4.314;2023-04-30T11:30:55;102243.97;;;20.66
18161;BMP280;9205;52.032;4.314;2023-04-30T11:33:24;102241.59;;;20.60
18161;BMP280;9205;52.032;4.314;2023-04-30T11:35:52;102242.25;;;20.02
18161;BMP280;9205;52.032;4.314;2023-04-30T11:38:25;102236.41;;;19.74
18161;BMP280;9205;52.032;4.314;2023-04-30T11:40:53;102235.47;;;19.77
18161;BMP280;9205;52.032;4.314;2023-04-30T11:43:25;102228.25;;;19.64
18161;BMP280;9205;52.032;4.314;2023-04-30T11:46:06;102219.38;;;19.70
18161;BMP280;9205;52.032;4.314;2023-04-30T11:48:35;102220.38;;;19.66
18161;BMP280;9205;52.032;4.314;2023-04-30T11:51:04;102222.31;;;19.62
18161;BMP280;9205;52.032;4.314;2023-04-30T11:53:32;102220.19;;;19.50
18161;BMP280;9205;52.032;4.314;2023-04-30T11:56:03;102218.19;;;19.33
18161;BMP280;9205;52.032;4.314;2023-04-30T11:58:35;102216.88;;;19.46
18161;BMP280;9205;52.032;4.314;2023-04-30T12:01:07;102212.09;;;19.59
18161;BMP280;9205;52.032;4.314;2023-04-30T12:03:41;102202.97;;;19.50
18161;BMP280;9205;52.032;4.314;2023-04-30T12:06:10;102208.84;;;19.54
18161;BMP280;9205;52.032;4.314;2023-04-30T12:08:40;102207.63;;;19.64
18161;BMP280;9205;52.032;4.314;2023-04-30T12:11:19;102197.63;;;19.77
18161;BMP280;9205;52.032;4.314;2023-04-30T12:13:53;102204.22;;;20.07
18161;BMP280;9205;52.032;4.314;2023-04-30T12:16:23;102194.06;;;20.24
18161;BMP280;9205;52.032;4.314;2023-04-30T12:18:51;102191.31;;;20.29
18161;BMP280;9205;52.032;4.314;2023-04-30T12:21:20;102199.94;;;20.06
18161;BMP280;9205;52.032;4.314;2023-04-30T12:23:47;102188.78;;;20.27
18161;BMP280;9205;52.032;4.314;2023-04-30T12:26:14;102187.81;;;20.30
18161;BMP280;9205;52.032;4.314;2023-04-30T12:28:42;102191.03;;;20.15
18161;BMP280;9205;52.032;4.314;2023-04-30T12:31:09;102193.59;;;20.15
18161;BMP280;9205;52.032;4.314;2023-04-30T12:33:38;102182.84;;;20.25
18161;BMP280;9205;52.032;4.314;2023-04-30T12:36:09;102185.78;;;20.16
18161;BMP280;9205;52.032;4.314;2023-04-30T12:38:36;102170.47;;;20.33
18161;BMP280;9205;52.032;4.314;2023-04-30T12:41:04;102176.69;;;20.49
18161;BMP280;9205;52.032;4.314;2023-04-30T12:43:31;102166.97;;;20.74
18161;BMP280;9205;52.032;4.314;2023-04-30T12:45:58;102169.81;;;20.89
18161;BMP280;9205;52.032;4.314;2023-04-30T12:48:26;102154.31;;;20.69
18161;BMP280;9205;52.032;4.314;2023-04-30T12:50:57;102161.00;;;20.73
18161;BMP280;9205;52.032;4.314;2023-04-30T12:53:25;102158.06;;;20.82
18161;BMP280;9205;52.032;4.314;2023-04-30T12:56:10;102154.38;;;20.88
18161;BMP280;9205;52.032;4.314;2023-04-30T12:58:39;102159.19;;;20.75
18161;BMP280;9205;52.032;4.314;2023-04-30T13:01:10;102163.94;;;20.86
18161;BMP280;9205;52.032;4.314;2023-04-30T13:03:38;102154.88;;;20.76
18161;BMP280;9205;52.032;4.314;2023-04-30T13:06:06;102165.72;;;20.64
18161;BMP280;9205;52.032;4.314;2023-04-30T13:08:35;102161.50;;;20.42
18161;BMP280;9205;52.032;4.314;2023-04-30T13:11:02;102158.22;;;20.17
18161;BMP280;9205;52.032;4.314;2023-04-30T13:13:30;102147.88;;;20.18
18161;BMP280;9205;52.032;4.314;2023-04-30T13:15:58;102148.88;;;20.14
18161;BMP280;9205;52.032;4.314;2023-04-30T13:18:25;102142.81;;;20.15
18161;BMP280;9205;52.032;4.314;2023-04-30T13:20:52;102138.19;;;20.43
18161;BMP280;9205;52.032;4.314;2023-04-30T13:23:21;102138.22;;;20.63
18161;BMP280;9205;52.032;4.314;2023-04-30T13:25:48;102130.84;;;20.74
18161;BMP280;9205;52.032;4.314;2023-04-30T13:28:15;102125.31;;;20.83
18161;BMP280;9205;52.032;4.314;2023-04-30T13:30:43;102121.66;;;21.07
18161;BMP280;9205;52.032;4.314;2023-04-30T13:33:10;102129.00;;;21.16
18161;BMP280;9205;52.032;4.314;2023-04-30T13:35:38;102112.66;;;21.33
18161;BMP280;9205;52.032;4.314;2023-04-30T13:38:05;102114.88;;;21.23
18161;BMP280;9205;52.032;4.314;2023-04-30T13:40:34;102115.09;;;21.36
18161;BMP280;9205;52.032;4.314;2023-04-30T13:43:01;102117.47;;;21.59
18161;BMP280;9205;52.032;4.314;2023-04-30T13:45:29;102102.16;;;21.73
18161;BMP280;9205;52.032;4.314;2023-04-30T13:47:56;102111.09;;;21.66
18161;BMP280;9205;52.032;4.314;2023-04-30T13:50:23;102118.53;;;21.55
18161;BMP280;9205;52.032;4.314;2023-04-30T13:52:51;102115.03;;;21.20
18161;BMP280;9205;52.032;4.314;2023-04-30T13:55:18;102107.81;;;21.26
18161;BMP280;9205;52.032;4.314;2023-04-30T13:57:47;102111.47;;;21.04
18161;BMP280;9205;52.032;4.314;2023-04-30T14:00:15;102112.69;;;20.95
18161;BMP280;9205;52.032;4.314;2023-04-30T14:02:43;102102.03;;;21.03
18161;BMP280;9205;52.032;4.314;2023-04-30T14:05:10;102110.28;;;21.29
18161;BMP280;9205;52.032;4.314;2023-04-30T14:07:37;102105.22;;;21.44
18161;BMP280;9205;52.032;4.314;2023-04-30T14:10:06;102098.16;;;21.48
18161;BMP280;9205;52.032;4.314;2023-04-30T14:12:34;102095.56;;;21.31
18161;BMP280;9205;52.032;4.314;2023-04-30T14:15:03;102093.50;;;21.37
18161;BMP280;9205;52.032;4.314;2023-04-30T14:17:30;102098.69;;;21.01
18161;BMP280;9205;52.032;4.314;2023-04-30T14:19:57;102093.38;;;21.04
18161;BMP280;9205;52.032;4.314;2023-04-30T14:22:24;102093.72;;;21.15
18161;BMP280;9205;52.032;4.314;2023-04-30T14:24:52;102082.56;;;21.32